Time;durP1;ratioP1;P1;durP2;ratioP2;P2;SDS_P1;SDS_P2;PMS_P1;PMS_P2;Temp;Humidity;BMP_temperature;BMP_pressure;BME280_temperature;BME280_humidity;BME280_pressure;Samples;Min_cycle;Max_cycle;Signal;HPM_P1;HPM_P2
2022/12/25 00:00:36;;;;;;;6.57;3.47;;;;;;;2.95;100.00;101296.16;6222027;28;20061;-73
2022/12/25 00:03:38;;;;;;;6.55;3.50;;;;;;;2.92;100.00;101286.69;6215799;28;20062;-73
2022/12/25 00:06:39;;;;;;;9.77;3.83;;;;;;;2.87;100.00;101288.47;6199246;28;20486;-73
2022/12/25 00:09:40;;;;;;;8.27;4.50;;;;;;;2.80;100.00;101295.47;6202350;28;20046;-74
2022/12/25 00:12:42;;;;;;;9.07;3.28;;;;;;;2.79;100.00;101285.97;6202062;28;20409;-73
2022/12/25 00:15:45;;;;;;;8.15;3.22;;;;;;;2.82;100.00;101287.69;6202476;28;20057;-73
2022/12/25 00:18:46;;;;;;;11.40;4.07;;;;;;;2.79;100.00;101304.13;6202012;28;20054;-74
2022/12/25 00:21:48;;;;;;;9.10;4.03;;;;;;;2.75;100.00;101302.44;6202132;28;20051;-74
2022/12/25 00:24:49;;;;;;;11.13;4.78;;;;;;;2.74;100.00;101298.16;6202038;28;20073;-72
2022/12/25 00:27:51;;;;;;;10.07;4.75;;;;;;;2.74;100.00;101300.75;6201921;28;20047;-73
2022/12/25 00:30:53;;;;;;;17.40;3.47;;;;;;;2.75;100.00;101304.19;6201726;28;20050;-74
2022/12/25 00:33:55;;;;;;;12.25;3.60;;;;;;;2.71;100.00;101300.78;6201543;28;20054;-73
2022/12/25 00:36:56;;;;;;;7.13;3.25;;;;;;;2.66;100.00;101306.91;6201802;28;20054;-74
2022/12/25 00:39:57;;;;;;;9.98;3.50;;;;;;;2.64;100.00;101313.84;6201571;28;20054;-73
2022/12/25 00:42:59;;;;;;;11.18;3.75;;;;;;;2.61;100.00;101321.66;6201784;28;20050;-74
2022/12/25 00:46:04;;;;;;;8.38;4.47;;;;;;;2.60;100.00;101333.78;6201267;28;20054;-72
2022/12/25 00:49:06;;;;;;;13.68;3.75;;;;;;;2.59;100.00;101341.56;6201653;28;20061;-73
2022/12/25 00:52:07;;;;;;;8.02;3.67;;;;;;;2.60;100.00;101343.31;6201052;28;20052;-73
2022/12/25 00:55:09;;;;;;;6.72;3.22;;;;;;;2.56;100.00;101342.47;6201304;28;20542;-73
2022/12/25 00:58:10;;;;;;;8.20;3.55;;;;;;;2.56;100.00;101334.69;6201164;28;20061;-74
2022/12/25 01:01:13;;;;;;;6.30;3.47;;;;;;;2.50;100.00;101326.97;6201223;28;20047;-73
2022/12/25 01:04:14;;;;;;;10.15;3.95;;;;;;;2.48;100.00;101313.16;6201148;28;20487;-73
2022/12/25 01:07:17;;;;;;;8.35;3.80;;;;;;;2.47;100.00;101301.06;6200815;28;20061;-73
2022/12/25 01:10:23;;;;;;;12.93;4.55;;;;;;;2.51;100.00;101297.56;6201006;28;20414;-74
2022/12/25 01:13:25;;;;;;;8.30;4.03;;;;;;;2.50;100.00;101309.69;6200701;28;20138;-73
2022/12/25 01:16:28;;;;;;;8.00;3.92;;;;;;;2.51;100.00;101310.53;6200372;28;20054;-73
2022/12/25 01:19:29;;;;;;;12.93;3.50;;;;;;;2.47;100.00;101304.53;6200322;28;20055;-73
2022/12/25 01:22:31;;;;;;;9.15;3.58;;;;;;;2.50;100.00;101304.50;6200804;28;20043;-72
2022/12/25 01:25:32;;;;;;;11.90;4.65;;;;;;;2.55;100.00;101332.97;6200624;28;20510;-74
2022/12/25 01:28:34;;;;;;;8.48;3.88;;;;;;;2.60;100.00;101326.00;6200598;28;20046;-73
2022/12/25 01:31:37;;;;;;;7.45;3.90;;;;;;;2.61;100.00;101338.09;6200365;28;20069;-73
2022/12/25 01:34:38;;;;;;;12.00;4.00;;;;;;;2.65;100.00;101333.72;6200464;28;20042;-73
2022/12/25 01:37:40;;;;;;;9.63;4.07;;;;;;;2.66;100.00;101336.31;6200168;28;20050;-73
2022/12/25 01:40:41;;;;;;;12.98;3.95;;;;;;;2.64;100.00;101332.88;6200451;28;20050;-73
2022/12/25 01:43:59;;;;;;;8.68;3.75;;;;;;;2.70;100.00;101342.31;6200099;28;20049;-73
2022/12/25 01:47:01;;;;;;;11.65;3.60;;;;;;;2.74;100.00;101342.25;6200473;28;20054;-73
2022/12/25 01:50:04;;;;;;;7.20;3.38;;;;;;;2.76;100.00;101330.13;6199990;28;20046;-73
2022/12/25 01:53:07;;;;;;;7.00;3.03;;;;;;;2.76;100.00;101322.34;6199798;28;20050;-72
2022/12/25 01:56:09;;;;;;;10.90;3.42;;;;;;;2.75;100.00;101328.41;6199987;28;20058;-73
2022/12/25 01:59:13;;;;;;;6.00;2.85;;;;;;;2.74;100.00;101336.22;6199711;28;20055;-72
2022/12/25 02:02:16;;;;;;;9.88;3.67;;;;;;;2.71;100.00;101339.69;6199848;28;20054;-74
2022/12/25 02:05:23;;;;;;;8.82;3.55;;;;;;;2.72;100.00;101346.59;6199577;28;20505;-73
2022/12/25 02:08:25;;;;;;;9.73;4.10;;;;;;;2.72;100.00;101354.38;6199863;28;20050;-73
2022/12/25 02:14:48;;;;;;;7.70;3.55;;;;;;;2.78;100.00;101346.53;6199582;28;20502;-74
2022/12/25 02:18:00;;;;;;;5.63;3.35;;;;;;;2.88;100.00;101342.09;6199376;28;20047;-73
2022/12/25 02:21:22;;;;;;;5.95;3.35;;;;;;;2.96;100.00;101336.81;6199265;28;20050;-73
2022/12/25 02:24:47;;;;;;;8.27;3.47;;;;;;;2.99;100.00;101342.81;6199259;28;20050;-74
2022/12/25 02:28:03;;;;;;;8.15;3.00;;;;;;;3.05;100.00;101347.94;6199150;28;20054;-73
2022/12/25 02:31:10;;;;;;;10.25;4.15;;;;;;;3.07;100.00;101349.66;6198271;28;20422;-73
2022/12/25 02:34:17;;;;;;;7.72;3.80;;;;;;;3.13;100.00;101342.63;6198920;28;20057;-73
2022/12/25 02:37:26;;;;;;;7.68;2.97;;;;;;;3.16;100.00;101339.16;6199176;28;20054;-71
2022/12/25 02:40:31;;;;;;;11.18;4.18;;;;;;;3.20;100.00;101343.44;6198854;28;20046;-72
2022/12/25 03:07:07;;;;;;;9.88;3.58;;;;;;;3.18;100.00;101327.00;6198598;28;20058;-73
2022/12/25 03:13:35;;;;;;;6.43;3.17;;;;;;;3.12;100.00;101319.28;6197975;28;20050;-74
2022/12/25 03:16:49;;;;;;;11.98;2.70;;;;;;;3.10;100.00;101321.06;6198253;28;20494;-72
2022/12/25 03:33:16;;;;;;;11.20;3.67;;;;;;;3.03;100.00;101320.28;6197857;28;20498;-73
2022/12/25 03:36:26;;;;;;;5.88;2.60;;;;;;;3.01;100.00;101319.44;6198064;28;20055;-73
2022/12/25 04:36:30;;;;;;;4.97;2.05;;;;;;;3.01;100.00;101299.53;6171887;28;20059;-73
2022/12/25 04:39:33;;;;;;;7.90;2.63;;;;;;;3.05;100.00;101301.22;6197080;28;20055;-73
2022/12/25 04:42:34;;;;;;;3.13;2.03;;;;;;;3.11;100.00;101289.88;6197097;28;20043;-73
2022/12/25 04:45:36;;;;;;;5.32;2.38;;;;;;;3.19;100.00;101284.59;6197229;28;20047;-72
2022/12/25 04:48:37;;;;;;;3.58;2.28;;;;;;;3.28;100.00;101274.06;6197092;28;20061;-73
2022/12/25 04:51:38;;;;;;;7.30;2.25;;;;;;;3.36;100.00;101277.41;6196820;28;20418;-73
2022/12/25 04:54:41;;;;;;;6.05;2.50;;;;;;;3.43;100.00;101270.38;6201526;28;20054;-73
2022/12/25 04:57:42;;;;;;;3.45;2.30;;;;;;;3.51;100.00;101286.72;6201097;28;20050;-73
2022/12/25 05:00:44;;;;;;;5.40;2.20;;;;;;;3.58;100.00;101279.66;6201064;28;20057;-74
2022/12/25 05:03:45;;;;;;;13.23;2.45;;;;;;;3.66;100.00;101270.84;6177679;28;20422;-73
2022/12/25 05:06:46;;;;;;;11.20;3.25;;;;;;;3.74;100.00;101269.00;6177131;28;20050;-73
2022/12/25 05:09:49;;;;;;;9.00;2.83;;;;;;;3.80;100.00;101274.09;6177064;28;20062;-73
2022/12/25 05:12:50;;;;;;;7.03;3.00;;;;;;;3.87;100.00;101269.66;6176727;28;20047;-72
2022/12/25 05:15:52;;;;;;;6.00;2.28;;;;;;;3.93;100.00;101256.53;6176728;28;20054;-73
2022/12/25 05:18:53;;;;;;;4.75;2.40;;;;;;;3.96;100.00;101247.84;6176584;28;20140;-73
2022/12/25 05:21:54;;;;;;;8.90;3.15;;;;;;;4.00;100.00;101250.34;6176759;28;20073;-74
2022/12/25 05:24:57;;;;;;;4.82;2.13;;;;;;;4.04;100.00;101262.41;6176413;28;20510;-74
2022/12/25 05:27:58;;;;;;;8.30;2.97;;;;;;;4.09;100.00;101262.34;6176610;28;20054;-74
2022/12/25 05:31:00;;;;;;;4.82;2.75;;;;;;;4.12;100.00;101258.81;6176358;28;20486;-74
2022/12/25 05:34:01;;;;;;;6.30;2.15;;;;;;;4.12;100.00;101249.25;6176415;28;20054;-74
2022/12/25 05:37:02;;;;;;;7.93;2.42;;;;;;;4.10;100.00;101238.03;6176396;28;20050;-73
2022/12/25 05:40:07;;;;;;;8.38;2.78;;;;;;;4.06;100.00;101234.63;6176053;28;20051;-74
2022/12/25 05:43:09;;;;;;;5.88;1.63;;;;;;;4.05;100.00;101243.31;6176513;28;20483;-73
2022/12/25 05:46:11;;;;;;;8.52;2.67;;;;;;;4.12;100.00;101232.78;6175864;28;20133;-74
2022/12/25 05:49:12;;;;;;;4.82;2.53;;;;;;;4.16;100.00;101243.09;6176029;28;20058;-73
2022/12/25 05:52:14;;;;;;;5.78;2.30;;;;;;;4.21;100.00;101238.66;6175768;28;20043;-72
2022/12/25 05:55:17;;;;;;;6.32;2.80;;;;;;;4.22;100.00;101237.78;6175856;28;20062;-74
2022/12/25 05:58:18;;;;;;;8.65;3.38;;;;;;;4.20;100.00;101228.31;6175723;28;20057;-73
2022/12/25 06:01:22;;;;;;;8.77;3.22;;;;;;;4.21;100.00;101232.63;6176376;28;20055;-73
2022/12/25 06:04:25;;;;;;;10.90;2.83;;;;;;;4.21;100.00;101233.47;6185968;28;20498;-73
2022/12/25 06:07:26;;;;;;;6.97;2.88;;;;;;;4.25;100.00;101229.91;6199981;28;20061;-73
2022/12/25 06:10:29;;;;;;;7.72;2.30;;;;;;;4.28;100.00;101229.03;6199320;28;20399;-73
2022/12/25 06:13:31;;;;;;;7.72;2.50;;;;;;;4.28;100.00;101221.22;6187403;28;20046;-73
2022/12/25 06:16:32;;;;;;;4.03;2.78;;;;;;;4.28;100.00;101229.03;6175216;28;20050;-72
2022/12/25 06:19:34;;;;;;;7.22;2.63;;;;;;;4.25;100.00;101231.66;6175172;28;20062;-74
2022/12/25 06:22:35;;;;;;;10.07;2.72;;;;;;;4.28;100.00;101223.81;6187851;28;20042;-73
2022/12/25 06:25:40;;;;;;;7.35;2.97;;;;;;;4.26;100.00;101221.22;6190446;28;20523;-74
2022/12/25 06:28:41;;;;;;;3.95;1.83;;;;;;;4.27;100.00;101219.47;6184931;28;20438;-72
2022/12/25 06:31:43;;;;;;;8.95;2.28;;;;;;;4.27;100.00;101220.38;6187394;28;20050;-73
2022/12/25 06:34:44;;;;;;;9.18;2.50;;;;;;;4.30;100.00;101232.44;6186494;28;20061;-74
2022/12/25 06:37:45;;;;;;;7.90;2.60;;;;;;;4.35;100.00;101228.00;6186272;28;20046;-73
2022/12/25 06:40:48;;;;;;;9.57;2.35;;;;;;;4.37;100.00;101228.84;6183933;28;20047;-73
2022/12/25 06:43:50;;;;;;;9.32;2.22;;;;;;;4.40;100.00;101220.94;6185690;28;20487;-73
2022/12/25 06:46:52;;;;;;;4.53;2.20;;;;;;;4.44;100.00;101221.75;6188139;28;20050;-70
2022/12/25 06:49:54;;;;;;;4.50;1.90;;;;;;;4.49;100.00;101215.56;6184214;28;20053;-72
2022/12/25 06:52:55;;;;;;;6.03;1.95;;;;;;;4.53;100.00;101212.00;6174514;28;20427;-74
2022/12/25 06:56:03;;;;;;;6.10;2.72;;;;;;;4.56;100.00;101219.75;6177076;28;20066;-73
2022/12/25 06:59:06;;;;;;;7.28;3.40;;;;;;;4.57;100.00;101216.25;6185485;28;20042;-74
2022/12/25 07:02:16;;;;;;;8.30;2.63;;;;;;;4.60;100.00;101230.13;6185472;28;20055;-72
2022/12/25 07:05:17;;;;;;;5.53;2.25;;;;;;;4.61;100.00;101230.06;6184804;28;20046;-73
2022/12/25 07:08:18;;;;;;;5.18;2.63;;;;;;;4.62;100.00;101234.38;6182008;28;20051;-74
2022/12/25 07:11:22;;;;;;;3.35;1.63;;;;;;;4.61;100.00;101230.06;6183630;28;20047;-74
2022/12/25 07:14:23;;;;;;;5.43;2.25;;;;;;;4.64;100.00;101237.81;6184059;28;20046;-73
2022/12/25 07:17:25;;;;;;;4.95;2.33;;;;;;;4.65;100.00;101236.94;6182315;28;20051;-74
2022/12/25 07:20:26;;;;;;;2.47;1.48;;;;;;;4.66;100.00;101225.63;6198291;28;20065;-74
2022/12/25 07:23:27;;;;;;;6.50;2.58;;;;;;;4.69;100.00;101224.72;6197996;28;20057;-73
2022/12/25 07:26:30;;;;;;;3.40;1.83;;;;;;;4.69;100.00;101222.13;6197820;28;20428;-72
2022/12/25 07:29:32;;;;;;;7.05;2.22;;;;;;;4.69;100.00;101207.34;6197943;28;20486;-74
2022/12/25 07:32:33;;;;;;;4.63;1.92;;;;;;;4.70;100.00;101210.81;6196244;28;20410;-73
2022/12/25 07:35:35;;;;;;;4.18;2.00;;;;;;;4.71;100.00;101213.38;6213189;28;20076;-74
2022/12/25 07:38:37;;;;;;;7.53;1.88;;;;;;;4.73;100.00;101222.00;6213637;28;20060;-73
2022/12/25 07:41:39;;;;;;;6.90;2.42;;;;;;;4.78;100.00;101216.72;6222002;28;20053;-74
2022/12/25 07:44:41;;;;;;;5.80;2.67;;;;;;;4.80;100.00;101218.38;6219218;28;20045;-74
2022/12/25 07:47:43;;;;;;;8.05;2.00;;;;;;;4.81;100.00;101212.28;6197449;28;20050;-74
2022/12/25 07:50:44;;;;;;;8.65;2.55;;;;;;;4.84;100.00;101203.53;6197587;28;20076;-74
2022/12/25 07:53:45;;;;;;;6.65;2.95;;;;;;;4.88;100.00;101191.31;6195548;28;20046;-74
2022/12/25 07:56:51;;;;;;;3.72;2.08;;;;;;;4.91;100.00;101180.84;6197562;28;20058;-74
2022/12/25 07:59:53;;;;;;;5.40;2.38;;;;;;;4.97;100.00;101181.53;6193600;28;20112;-74
2022/12/25 08:02:54;;;;;;;4.75;2.15;;;;;;;5.02;100.00;101174.47;6199353;28;20058;-74
2022/12/25 08:05:59;;;;;;;2.90;1.80;;;;;;;5.08;100.00;101173.47;6203061;28;20054;-73
2022/12/25 08:09:04;;;;;;;4.53;2.35;;;;;;;5.15;100.00;101176.78;6197777;28;20057;-73
2022/12/25 08:12:07;;;;;;;5.95;2.75;;;;;;;5.22;100.00;101174.00;6197317;28;20043;-74
2022/12/25 08:15:09;;;;;;;7.07;3.13;;;;;;;5.29;100.00;101172.09;6197341;28;20043;-73
2022/12/25 08:18:10;;;;;;;9.13;2.47;;;;;;;5.33;100.00;101185.00;6197224;28;20051;-73
2022/12/25 08:21:14;;;;;;;5.47;2.08;;;;;;;5.37;100.00;101201.44;6197221;28;20414;-73
2022/12/25 08:24:16;;;;;;;5.60;2.50;;;;;;;5.42;100.00;101199.56;6197141;28;20061;-74
2022/12/25 08:27:18;;;;;;;12.25;2.45;;;;;;;5.45;100.00;101215.16;6198709;28;20054;-73
2022/12/25 08:30:20;;;;;;;4.78;2.22;;;;;;;5.48;100.00;101204.63;6202007;28;20050;-73
2022/12/25 08:33:21;;;;;;;5.65;2.30;;;;;;;5.51;100.00;101204.56;6202107;28;20046;-73
2022/12/25 08:36:23;;;;;;;4.18;2.55;;;;;;;5.56;100.00;101220.09;6201437;28;20046;-74
2022/12/25 08:39:24;;;;;;;5.75;2.35;;;;;;;5.59;100.00;101227.84;6201720;28;20046;-74
2022/12/25 08:42:27;;;;;;;4.93;2.55;;;;;;;5.59;100.00;101217.41;6201669;28;20057;-73
2022/12/25 08:45:28;;;;;;;12.82;2.33;;;;;;;5.62;100.00;101219.91;6187647;28;20499;-73
2022/12/25 08:48:30;;;;;;;4.47;2.20;;;;;;;5.67;100.00;101222.41;6177403;28;20061;-73
2022/12/25 08:51:31;;;;;;;6.28;2.33;;;;;;;5.70;100.00;101227.56;6177052;28;20590;-74
2022/12/25 08:54:35;;;;;;;6.00;2.53;;;;;;;5.72;100.00;101218.81;6176813;28;20050;-73
2022/12/25 08:57:37;;;;;;;9.82;2.95;;;;;;;5.76;100.00;101207.38;6188307;28;20108;-73
2022/12/25 09:00:39;;;;;;;3.50;2.22;;;;;;;5.75;100.00;101197.84;6193591;28;20050;-73
2022/12/25 09:03:41;;;;;;;5.20;2.47;;;;;;;5.77;100.00;101187.41;6193559;28;20047;-73
2022/12/25 09:06:43;;;;;;;3.70;2.13;;;;;;;5.80;100.00;101187.28;6201058;28;20082;-73
2022/12/25 09:09:44;;;;;;;6.07;2.65;;;;;;;5.84;100.00;101179.34;6183513;28;20442;-71
2022/12/25 09:12:46;;;;;;;8.13;2.60;;;;;;;5.88;100.00;101187.97;6176662;28;20051;-73
2022/12/25 09:15:48;;;;;;;10.02;3.10;;;;;;;5.94;100.00;101190.41;6176284;28;20050;-72
2022/12/25 09:18:50;;;;;;;3.67;2.53;;;;;;;5.99;100.00;101195.50;6197879;28;20054;-72
2022/12/25 09:21:52;;;;;;;7.13;2.83;;;;;;;6.04;100.00;101204.06;6190987;28;20053;-73
2022/12/25 09:24:53;;;;;;;7.15;3.22;;;;;;;6.10;100.00;101219.56;6195827;28;20046;-73
2022/12/25 09:27:58;;;;;;;6.55;2.65;;;;;;;6.13;100.00;101224.69;6200279;28;20513;-73
2022/12/25 09:30:59;;;;;;;4.93;2.53;;;;;;;6.17;100.00;101215.03;6189567;28;20058;-73
2022/12/25 09:34:01;;;;;;;3.65;2.20;;;;;;;6.14;100.00;101215.13;6195573;28;20046;-74
2022/12/25 09:37:02;;;;;;;6.18;2.47;;;;;;;6.14;100.00;101223.81;6196128;28;20050;-73
2022/12/25 09:40:05;;;;;;;9.23;2.58;;;;;;;6.15;100.00;101228.13;6195315;28;20049;-74
2022/12/25 09:43:12;;;;;;;5.13;2.70;;;;;;;6.18;100.00;101217.63;6192576;28;20046;-73
2022/12/25 09:46:17;;;;;;;5.32;2.97;;;;;;;6.12;100.00;101207.31;6199836;28;20046;-74
2022/12/25 09:49:21;;;;;;;6.10;2.92;;;;;;;6.15;100.00;101195.97;6186218;28;20062;-73
2022/12/25 09:52:28;;;;;;;4.32;2.17;;;;;;;6.17;100.00;101184.56;6176058;28;20077;-74
2022/12/25 09:55:32;;;;;;;4.60;2.20;;;;;;;6.19;100.00;101187.16;6175768;28;20051;-72
2022/12/25 09:58:35;;;;;;;6.60;2.90;;;;;;;6.22;100.00;101181.81;6196458;28;20047;-73
2022/12/25 10:01:44;;;;;;;5.15;2.97;;;;;;;6.26;100.00;101168.66;6191874;28;20054;-73
2022/12/25 10:05:03;;;;;;;5.25;2.17;;;;;;;6.30;100.00;101170.28;6195059;28;20042;-72
2022/12/25 10:08:11;;;;;;;9.27;3.83;;;;;;;6.34;100.00;101173.66;6194853;28;20050;-74
2022/12/25 10:11:26;;;;;;;7.95;3.40;;;;;;;6.34;100.00;101143.19;6197839;28;20054;-74
2022/12/25 10:14:38;;;;;;;3.95;2.40;;;;;;;6.38;100.00;101138.72;6190609;28;20042;-73
2022/12/25 10:17:52;;;;;;;8.85;3.08;;;;;;;6.41;100.00;101143.88;6195016;28;20051;-73
2022/12/25 10:20:54;;;;;;;6.05;2.97;;;;;;;6.49;100.00;101141.00;6203358;28;20057;-73
2022/12/25 10:24:06;;;;;;;7.45;2.60;;;;;;;6.50;100.00;101114.88;6209134;28;20046;-73
2022/12/25 10:27:14;;;;;;;4.00;2.33;;;;;;;6.55;100.00;101131.25;6200421;28;20045;-73
2022/12/25 10:30:19;;;;;;;8.93;3.03;;;;;;;6.54;100.00;101134.78;6185469;28;20049;-73
2022/12/25 10:33:21;;;;;;;5.70;2.65;;;;;;;6.52;100.00;101131.34;6198860;28;20053;-72
2022/12/25 10:36:24;;;;;;;6.47;2.35;;;;;;;6.51;100.00;101123.56;6194920;28;20050;-74
2022/12/25 10:39:26;;;;;;;9.63;3.28;;;;;;;6.51;100.00;101111.34;6198679;28;20050;-74
2022/12/25 10:42:37;;;;;;;5.47;2.60;;;;;;;6.52;100.00;101101.78;6198909;28;20061;-74
2022/12/25 10:45:48;;;;;;;9.52;3.28;;;;;;;6.54;100.00;101107.78;6198593;28;20057;-72
2022/12/25 10:48:52;;;;;;;5.63;3.17;;;;;;;6.60;100.00;101124.13;6198841;28;20058;-74
2022/12/25 10:51:53;;;;;;;7.00;3.28;;;;;;;6.66;100.00;101133.53;6197677;28;20414;-74
2022/12/25 10:54:55;;;;;;;8.32;3.28;;;;;;;6.69;100.00;101145.66;6198510;28;20057;-73
2022/12/25 10:57:57;;;;;;;4.88;2.60;;;;;;;6.78;100.00;101150.59;6197534;28;20046;-74
2022/12/25 11:01:04;;;;;;;7.95;3.17;;;;;;;6.79;100.00;101145.31;6184548;28;20057;-73
2022/12/25 11:04:05;;;;;;;5.20;2.47;;;;;;;6.84;100.00;101153.00;6198419;28;20421;-80
2022/12/25 11:07:14;;;;;;;4.55;2.35;;;;;;;6.80;100.00;101140.94;6193989;28;20050;-74
2022/12/25 11:10:21;;;;;;;4.03;2.08;;;;;;;6.81;100.00;101140.03;6192512;28;20051;-74
2022/12/25 11:13:25;;;;;;;10.48;3.00;;;;;;;6.81;100.00;101140.03;6211788;28;20050;-74
2022/12/25 11:16:31;;;;;;;4.85;3.25;;;;;;;6.82;100.00;101132.16;6220389;28;20049;-74
2022/12/25 11:19:32;;;;;;;4.75;2.97;;;;;;;6.83;100.00;101128.63;6221167;28;20054;-74
2022/12/25 11:22:36;;;;;;;8.00;3.05;;;;;;;6.84;100.00;101132.94;6219819;28;20354;-74
2022/12/25 11:25:38;;;;;;;8.93;3.17;;;;;;;6.86;100.00;101139.00;6221356;28;20056;-74
2022/12/25 11:28:42;;;;;;;6.22;2.88;;;;;;;6.92;100.00;101129.25;6222493;28;20181;-75
2022/12/25 11:31:46;;;;;;;4.20;2.42;;;;;;;6.93;100.00;101133.56;6222223;28;20093;-75
2022/12/25 11:34:49;;;;;;;8.00;2.38;;;;;;;6.97;100.00;101115.13;6222266;28;20049;-74
2022/12/25 11:37:52;;;;;;;9.02;3.28;;;;;;;7.01;100.00;101108.91;6221992;28;20425;-75
2022/12/25 11:40:57;;;;;;;4.60;2.58;;;;;;;7.06;100.00;101087.84;6222236;28;20049;-75
2022/12/25 11:44:03;;;;;;;7.25;2.78;;;;;;;7.08;100.00;101067.72;6222038;28;20516;-74
2022/12/25 11:47:17;;;;;;;6.45;2.50;;;;;;;7.11;100.00;101076.31;6222328;28;20058;-74
2022/12/25 11:50:26;;;;;;;5.78;2.47;;;;;;;7.15;100.00;101071.00;6222009;28;20060;-73
2022/12/25 11:53:31;;;;;;;5.07;2.90;;;;;;;7.12;100.00;101067.56;6222079;28;20052;-75
2022/12/25 11:56:32;;;;;;;6.35;3.08;;;;;;;7.14;100.00;101061.47;6221821;28;20050;-76
2022/12/25 11:59:41;;;;;;;6.10;2.60;;;;;;;7.18;100.00;101065.69;6276577;22;20028;-76
2022/12/25 12:02:50;;;;;;;7.43;2.83;;;;;;;7.18;100.00;101052.63;6227502;28;20050;-75
2022/12/25 12:05:55;;;;;;;6.85;2.55;;;;;;;7.18;100.00;101057.84;6228463;28;20048;-76
2022/12/25 12:09:09;;;;;;;5.45;2.58;;;;;;;7.18;100.00;101045.63;6228379;28;20548;-76
2022/12/25 12:12:18;;;;;;;3.92;2.60;;;;;;;7.17;100.00;101029.97;6227806;28;20461;-75
2022/12/25 12:15:28;;;;;;;4.82;2.30;;;;;;;7.17;100.00;101027.38;6228325;28;20054;-74
2022/12/25 12:18:32;;;;;;;3.47;2.45;;;;;;;7.16;100.00;101025.66;6228493;28;20050;-74
2022/12/25 12:21:34;;;;;;;6.07;2.47;;;;;;;7.17;100.00;101032.59;6227973;28;20082;-76
2022/12/25 12:24:38;;;;;;;5.70;1.88;;;;;;;7.16;100.00;101023.06;6228491;28;20050;-75
2022/12/25 12:27:40;;;;;;;6.68;2.13;;;;;;;7.16;100.00;101009.97;6228565;28;20494;-76
2022/12/25 12:30:42;;;;;;;7.75;2.60;;;;;;;7.15;100.00;101003.06;6227808;28;20502;-75
2022/12/25 12:33:51;;;;;;;6.07;2.30;;;;;;;7.13;100.00;101008.34;6227680;28;20148;-76
2022/12/25 12:36:59;;;;;;;3.75;2.13;;;;;;;7.12;100.00;100996.16;6227560;28;20053;-75
2022/12/25 12:40:01;;;;;;;6.63;2.45;;;;;;;7.12;100.00;100986.56;6227102;28;20053;-74
2022/12/25 12:43:04;;;;;;;6.25;2.67;;;;;;;7.11;100.00;100981.41;6226477;28;20061;-74
2022/12/25 12:46:14;;;;;;;4.25;1.88;;;;;;;7.09;100.00;100973.63;6226788;28;20046;-78
2022/12/25 12:49:21;;;;;;;3.97;2.42;;;;;;;7.11;100.00;100957.88;6227030;28;20052;-77
2022/12/25 12:52:25;;;;;;;3.83;2.53;;;;;;;7.10;100.00;100957.03;6226299;28;20077;-76
2022/12/25 12:55:31;;;;;;;6.25;2.97;;;;;;;7.11;100.00;100952.66;6226879;28;20056;-74
2022/12/25 12:58:35;;;;;;;10.30;3.20;;;;;;;7.11;100.00;100950.03;6226729;28;20053;-74
2022/12/25 13:01:47;;;;;;;5.15;2.40;;;;;;;7.15;100.00;100946.41;6226572;28;20437;-74
2022/12/25 13:04:59;;;;;;;5.47;2.83;;;;;;;7.14;100.00;100949.94;6228363;28;20049;-75
2022/12/25 13:08:11;;;;;;;4.25;2.65;;;;;;;7.15;100.00;100946.41;6229056;28;20060;-75
2022/12/25 13:11:19;;;;;;;6.82;3.38;;;;;;;7.14;100.00;100947.31;6228469;28;20049;-74
2022/12/25 13:14:22;;;;;;;4.47;2.58;;;;;;;7.12;100.00;100941.28;6227414;28;20057;-75
2022/12/25 13:17:26;;;;;;;11.00;3.20;;;;;;;7.11;100.00;100936.97;6228866;28;20049;-76
2022/12/25 13:20:39;;;;;;;6.68;3.60;;;;;;;7.12;100.00;100930.81;6228601;28;20046;-76
2022/12/25 13:23:40;;;;;;;8.48;3.08;;;;;;;7.14;100.00;100917.72;6228761;28;20049;-74
2022/12/25 13:26:42;;;;;;;8.35;3.10;;;;;;;7.16;100.00;100908.06;6228683;28;20061;-76
2022/12/25 13:29:43;;;;;;;4.68;2.83;;;;;;;7.15;100.00;100895.91;6228251;28;20056;-77
2022/12/25 13:32:45;;;;;;;9.45;3.58;;;;;;;7.14;100.00;100896.81;6229307;28;20077;-76
2022/12/25 13:35:48;;;;;;;6.25;3.05;;;;;;;7.15;100.00;100895.91;6229435;28;20129;-75
2022/12/25 13:38:51;;;;;;;12.13;3.63;;;;;;;7.17;100.00;100901.91;6227631;28;20049;-75
2022/12/25 13:42:08;;;;;;;5.03;3.00;;;;;;;7.17;100.00;100889.69;6227064;28;20053;-76
2022/12/25 13:45:21;;;;;;;8.27;3.22;;;;;;;7.17;100.00;100879.25;6227476;28;20092;-76
2022/12/25 13:48:24;;;;;;;11.93;3.20;;;;;;;7.18;100.00;100883.59;6227487;28;20049;-75
2022/12/25 13:51:27;;;;;;;3.75;2.35;;;;;;;7.21;100.00;100890.44;6227085;28;20414;-75
2022/12/25 13:54:29;;;;;;;12.60;3.45;;;;;;;7.20;100.00;100892.22;6227980;28;20041;-75
2022/12/25 13:57:34;;;;;;;9.23;2.53;;;;;;;7.19;100.00;100885.28;6232358;28;20545;-78
2022/12/25 14:00:38;;;;;;;8.18;3.25;;;;;;;7.18;100.00;100885.34;6233798;28;20061;-75
2022/12/25 14:03:41;;;;;;;9.50;3.03;;;;;;;7.18;100.00;100886.19;6234133;28;20056;-77
2022/12/25 14:06:44;;;;;;;7.47;3.20;;;;;;;7.20;100.00;100881.75;6231544;28;20529;-75
2022/12/25 14:09:47;;;;;;;11.85;4.20;;;;;;;7.21;100.00;100866.91;6233562;28;20050;-75
2022/12/25 14:12:50;;;;;;;6.22;2.92;;;;;;;7.22;100.00;100869.50;6227685;28;20057;-74
2022/12/25 14:15:52;;;;;;;8.15;2.97;;;;;;;7.24;100.00;100848.53;6226559;28;20103;-74
2022/12/25 14:18:56;;;;;;;14.63;3.47;;;;;;;7.29;100.00;100843.97;6226607;28;20106;-75
2022/12/25 14:22:01;;;;;;;4.15;1.95;;;;;;;7.29;100.00;100836.97;6226280;28;20046;-74
2022/12/25 14:25:03;;;;;;;4.38;2.38;;;;;;;7.31;100.00;100836.91;6226680;28;20042;-74
2022/12/25 14:28:08;;;;;;;11.32;3.65;;;;;;;7.31;100.00;100831.69;6225823;28;20049;-75
2022/12/25 14:31:11;;;;;;;5.80;3.00;;;;;;;7.32;100.00;100834.25;6226001;28;20056;-75
2022/12/25 14:34:16;;;;;;;5.03;2.70;;;;;;;7.32;100.00;100829.03;6226076;28;20061;-75
2022/12/25 14:37:22;;;;;;;5.68;2.50;;;;;;;7.31;100.00;100827.31;6226722;28;20054;-75
2022/12/25 14:40:27;;;;;;;4.45;2.45;;;;;;;7.33;100.00;100827.25;6226209;28;20050;-74
2022/12/25 14:43:29;;;;;;;7.82;3.13;;;;;;;7.27;100.00;100812.66;6226461;28;20061;-75
2022/12/25 14:46:32;;;;;;;4.10;2.50;;;;;;;7.26;100.00;100813.56;6227638;28;20050;-76
2022/12/25 14:49:34;;;;;;;5.75;2.85;;;;;;;7.26;100.00;100810.09;6228105;28;20516;-75
2022/12/25 14:52:43;;;;;;;5.82;2.70;;;;;;;7.27;100.00;100810.06;6228357;28;20058;-75
2022/12/25 14:55:48;;;;;;;7.97;3.80;;;;;;;7.26;100.00;100812.72;6228183;28;20137;-75
2022/12/25 14:58:52;;;;;;;5.22;2.97;;;;;;;7.25;100.00;100814.47;6227992;28;20057;-75
2022/12/25 15:01:56;;;;;;;6.90;2.70;;;;;;;7.25;100.00;100819.69;6226843;28;20060;-75
2022/12/25 15:04:57;;;;;;;3.40;2.20;;;;;;;7.24;100.00;100809.31;6223981;28;20054;-78
2022/12/25 15:08:19;;;;;;;8.13;3.20;;;;;;;7.26;100.00;100812.72;6224603;28;20050;-76
2022/12/25 15:11:20;;;;;;;6.55;3.38;;;;;;;7.26;100.00;100808.31;6225752;28;20068;-74
2022/12/25 15:14:22;;;;;;;3.72;2.83;;;;;;;7.27;100.00;100799.59;6225491;28;20498;-76
2022/12/25 15:17:27;;;;;;;4.47;2.65;;;;;;;7.26;100.00;100794.41;6226351;28;20053;-75
2022/12/25 15:20:31;;;;;;;4.50;2.72;;;;;;;7.23;100.00;100787.56;6227536;28;20057;-76
2022/12/25 15:23:34;;;;;;;4.75;1.77;;;;;;;7.26;100.00;100794.41;6226399;28;20076;-75
2022/12/25 15:26:35;;;;;;;6.57;2.53;;;;;;;7.26;100.00;100790.03;6226751;28;20046;-74
2022/12/25 15:29:36;;;;;;;10.85;2.58;;;;;;;7.26;100.00;100776.13;6225797;28;20057;-76
2022/12/25 15:32:38;;;;;;;4.90;2.70;;;;;;;7.23;100.00;100769.25;6225674;28;20069;-76
2022/12/25 15:35:39;;;;;;;6.50;2.83;;;;;;;7.20;100.00;100760.69;6225367;28;20054;-75
2022/12/25 15:38:42;;;;;;;7.95;3.58;;;;;;;7.20;100.00;100763.28;6226670;28;20060;-76
2022/12/25 15:45:02;;;;;;;5.40;3.38;;;;;;;7.26;100.00;100761.28;6224508;28;20049;-77
2022/12/25 15:48:04;;;;;;;8.43;3.13;;;;;;;7.29;100.00;100760.31;6224834;28;20050;-75
2022/12/25 15:51:05;;;;;;;5.07;2.67;;;;;;;7.29;100.00;100749.88;6224298;28;20058;-76
2022/12/25 15:54:08;;;;;;;5.07;2.67;;;;;;;7.31;100.00;100742.78;6224169;28;20045;-76
2022/12/25 15:57:16;;;;;;;4.88;2.40;;;;;;;7.28;100.00;100733.34;6223971;28;20046;-76